sensor_id;sensor_type;location;lat;lon;timestamp;P1;durP1;ratioP1;P2;durP2;ratioP2
52708;SDS011;38606;52.986;6.980;2023-09-30T00:01:28;20.70;;;4.72;;
52708;SDS011;38606;52.986;6.980;2023-09-30T00:03:54;18.08;;;4.05;;
52708;SDS011;38606;52.986;6.980;2023-09-30T00:06:20;24.50;;;5.47;;
52708;SDS011;38606;52.986;6.980;2023-09-30T00:08:45;18.00;;;4.57;;
52708;SDS011;38606;52.986;6.980;2023-09-30T00:11:14;22.25;;;4.40;;
52708;SDS011;38606;52.986;6.980;2023-09-30T00:13:41;19.40;;;3.92;;
52708;SDS011;38606;52.986;6.980;2023-09-30T00:16:07;21.35;;;4.72;;
52708;SDS011;38606;52.986;6.980;2023-09-30T00:18:32;16.98;;;3.92;;
52708;SDS011;38606;52.986;6.980;2023-09-30T00:20:58;20.38;;;4.68;;
52708;SDS011;38606;52.986;6.980;2023-09-30T00:23:24;19.13;;;4.18;;
52708;SDS011;38606;52.986;6.980;2023-09-30T00:25:49;18.50;;;3.97;;
52708;SDS011;38606;52.986;6.980;2023-09-30T00:28:15;15.85;;;4.43;;
52708;SDS011;38606;52.986;6.980;2023-09-30T00:30:41;27.65;;;4.97;;
52708;SDS011;38606;52.986;6.980;2023-09-30T00:33:06;19.05;;;4.40;;
52708;SDS011;38606;52.986;6.980;2023-09-30T00:35:33;17.38;;;4.35;;
52708;SDS011;38606;52.986;6.980;2023-09-30T00:37:58;17.73;;;4.90;;
52708;SDS011;38606;52.986;6.980;2023-09-30T00:40:24;22.15;;;4.38;;
52708;SDS011;38606;52.986;6.980;2023-09-30T00:42:50;16.08;;;4.53;;
52708;SDS011;38606;52.986;6.980;2023-09-30T00:45:15;26.55;;;4.63;;
52708;SDS011;38606;52.986;6.980;2023-09-30T00:47:41;26.02;;;5.40;;
52708;SDS011;38606;52.986;6.980;2023-09-30T00:50:07;18.77;;;4.82;;
52708;SDS011;38606;52.986;6.980;2023-09-30T00:52:35;18.75;;;4.40;;
52708;SDS011;38606;52.986;6.980;2023-09-30T00:55:03;14.45;;;4.20;;
52708;SDS011;38606;52.986;6.980;2023-09-30T00:57:31;20.25;;;5.25;;
52708;SDS011;38606;52.986;6.980;2023-09-30T00:59:57;16.38;;;4.38;;
52708;SDS011;38606;52.986;6.980;2023-09-30T01:02:23;19.02;;;5.05;;
52708;SDS011;38606;52.986;6.980;2023-09-30T01:04:49;23.27;;;4.80;;
52708;SDS011;38606;52.986;6.980;2023-09-30T01:07:15;28.42;;;5.10;;
52708;SDS011;38606;52.986;6.980;2023-09-30T01:09:41;23.92;;;4.65;;
52708;SDS011;38606;52.986;6.980;2023-09-30T01:12:07;21.80;;;4.82;;
52708;SDS011;38606;52.986;6.980;2023-09-30T01:14:34;20.55;;;4.53;;
52708;SDS011;38606;52.986;6.980;2023-09-30T01:17:01;20.33;;;5.05;;
52708;SDS011;38606;52.986;6.980;2023-09-30T01:19:27;14.18;;;4.20;;
52708;SDS011;38606;52.986;6.980;2023-09-30T01:21:53;16.95;;;4.47;;
52708;SDS011;38606;52.986;6.980;2023-09-30T01:24:21;19.85;;;4.78;;
52708;SDS011;38606;52.986;6.980;2023-09-30T01:26:47;19.17;;;4.55;;
52708;SDS011;38606;52.986;6.980;2023-09-30T01:29:13;18.45;;;4.45;;
52708;SDS011;38606;52.986;6.980;2023-09-30T01:31:39;19.98;;;4.50;;
52708;SDS011;38606;52.986;6.980;2023-09-30T01:34:05;20.35;;;4.13;;
52708;SDS011;38606;52.986;6.980;2023-09-30T01:36:31;19.60;;;4.47;;
52708;SDS011;38606;52.986;6.980;2023-09-30T01:38:57;17.17;;;4.57;;
52708;SDS011;38606;52.986;6.980;2023-09-30T01:41:22;20.02;;;4.78;;
52708;SDS011;38606;52.986;6.980;2023-09-30T01:43:48;14.73;;;5.03;;
52708;SDS011;38606;52.986;6.980;2023-09-30T01:46:14;16.38;;;4.93;;
52708;SDS011;38606;52.986;6.980;2023-09-30T01:48:40;18.30;;;5.20;;
52708;SDS011;38606;52.986;6.980;2023-09-30T01:51:06;20.88;;;4.85;;
52708;SDS011;38606;52.986;6.980;2023-09-30T01:53:32;19.27;;;5.28;;
52708;SDS011;38606;52.986;6.980;2023-09-30T01:55:58;19.05;;;4.93;;
52708;SDS011;38606;52.986;6.980;2023-09-30T01:58:24;18.08;;;4.75;;
52708;SDS011;38606;52.986;6.980;2023-09-30T02:00:53;18.05;;;4.40;;
52708;SDS011;38606;52.986;6.980;2023-09-30T02:03:19;23.50;;;5.03;;
52708;SDS011;38606;52.986;6.980;2023-09-30T02:05:44;18.42;;;5.00;;
52708;SDS011;38606;52.986;6.980;2023-09-30T02:08:10;18.52;;;4.95;;
52708;SDS011;38606;52.986;6.980;2023-09-30T02:10:36;20.65;;;4.72;;
52708;SDS011;38606;52.986;6.980;2023-09-30T02:13:01;25.55;;;5.40;;
52708;SDS011;38606;52.986;6.980;2023-09-30T02:15:31;17.20;;;4.85;;
52708;SDS011;38606;52.986;6.980;2023-09-30T02:17:57;19.38;;;5.00;;
52708;SDS011;38606;52.986;6.980;2023-09-30T02:20:23;20.08;;;4.80;;
52708;SDS011;38606;52.986;6.980;2023-09-30T02:22:51;16.15;;;4.88;;
52708;SDS011;38606;52.986;6.980;2023-09-30T02:25:17;22.50;;;5.75;;
52708;SDS011;38606;52.986;6.980;2023-09-30T02:27:43;20.30;;;5.13;;
52708;SDS011;38606;52.986;6.980;2023-09-30T02:30:10;17.42;;;4.72;;
52708;SDS011;38606;52.986;6.980;2023-09-30T02:32:41;19.88;;;4.78;;
52708;SDS011;38606;52.986;6.980;2023-09-30T02:35:07;18.15;;;5.00;;
52708;SDS011;38606;52.986;6.980;2023-09-30T02:37:36;25.00;;;5.35;;
52708;SDS011;38606;52.986;6.980;2023-09-30T02:40:04;18.45;;;4.55;;
52708;SDS011;38606;52.986;6.980;2023-09-30T02:42:50;22.70;;;5.53;;
52708;SDS011;38606;52.986;6.980;2023-09-30T02:45:16;21.75;;;4.70;;
52708;SDS011;38606;52.986;6.980;2023-09-30T02:47:42;19.25;;;5.13;;
52708;SDS011;38606;52.986;6.980;2023-09-30T02:50:08;20.88;;;4.55;;
52708;SDS011;38606;52.986;6.980;2023-09-30T02:52:38;20.65;;;5.28;;
52708;SDS011;38606;52.986;6.980;2023-09-30T02:55:07;21.73;;;5.03;;
52708;SDS011;38606;52.986;6.980;2023-09-30T02:57:36;18.50;;;4.68;;
52708;SDS011;38606;52.986;6.980;2023-09-30T03:00:03;20.90;;;4.90;;
52708;SDS011;38606;52.986;6.980;2023-09-30T03:02:48;18.35;;;4.93;;
52708;SDS011;38606;52.986;6.980;2023-09-30T03:05:16;20.85;;;4.80;;
52708;SDS011;38606;52.986;6.980;2023-09-30T03:07:42;15.13;;;4.60;;
52708;SDS011;38606;52.986;6.980;2023-09-30T03:10:08;16.38;;;4.75;;
52708;SDS011;38606;52.986;6.980;2023-09-30T03:12:35;19.48;;;5.28;;
52708;SDS011;38606;52.986;6.980;2023-09-30T03:15:01;20.70;;;5.10;;
52708;SDS011;38606;52.986;6.980;2023-09-30T03:17:30;21.73;;;5.45;;
52708;SDS011;38606;52.986;6.980;2023-09-30T03:19:57;17.55;;;4.72;;
52708;SDS011;38606;52.986;6.980;2023-09-30T03:22:24;15.13;;;4.35;;
52708;SDS011;38606;52.986;6.980;2023-09-30T03:24:52;20.17;;;4.63;;
52708;SDS011;38606;52.986;6.980;2023-09-30T03:27:19;17.25;;;5.00;;
52708;SDS011;38606;52.986;6.980;2023-09-30T03:29:45;21.35;;;5.43;;
52708;SDS011;38606;52.986;6.980;2023-09-30T03:32:11;20.75;;;5.05;;
52708;SDS011;38606;52.986;6.980;2023-09-30T03:34:37;21.52;;;5.00;;
52708;SDS011;38606;52.986;6.980;2023-09-30T03:37:02;17.52;;;4.90;;
52708;SDS011;38606;52.986;6.980;2023-09-30T03:39:31;18.33;;;5.57;;
52708;SDS011;38606;52.986;6.980;2023-09-30T03:41:57;21.80;;;6.00;;
52708;SDS011;38606;52.986;6.980;2023-09-30T03:44:24;17.85;;;5.22;;
52708;SDS011;38606;52.986;6.980;2023-09-30T03:46:50;16.33;;;5.00;;
52708;SDS011;38606;52.986;6.980;2023-09-30T03:49:17;21.83;;;5.68;;
52708;SDS011;38606;52.986;6.980;2023-09-30T03:51:45;18.17;;;5.20;;
52708;SDS011;38606;52.986;6.980;2023-09-30T03:54:15;19.00;;;6.35;;
52708;SDS011;38606;52.986;6.980;2023-09-30T03:56:43;18.67;;;5.30;;
52708;SDS011;38606;52.986;6.980;2023-09-30T03:59:10;19.60;;;6.13;;
52708;SDS011;38606;52.986;6.980;2023-09-30T04:01:36;23.33;;;5.47;;
52708;SDS011;38606;52.986;6.980;2023-09-30T04:04:05;22.23;;;5.40;;
52708;SDS011;38606;52.986;6.980;2023-09-30T04:06:32;17.02;;;5.45;;
52708;SDS011;38606;52.986;6.980;2023-09-30T04:08:58;17.80;;;5.88;;
52708;SDS011;38606;52.986;6.980;2023-09-30T04:11:25;15.73;;;5.30;;
52708;SDS011;38606;52.986;6.980;2023-09-30T04:13:50;19.73;;;5.78;;
52708;SDS011;38606;52.986;6.980;2023-09-30T04:16:16;16.70;;;5.50;;
52708;SDS011;38606;52.986;6.980;2023-09-30T04:18:43;18.10;;;5.68;;
52708;SDS011;38606;52.986;6.980;2023-09-30T04:21:09;22.23;;;6.10;;
52708;SDS011;38606;52.986;6.980;2023-09-30T04:23:35;15.93;;;6.43;;
52708;SDS011;38606;52.986;6.980;2023-09-30T04:26:02;14.90;;;4.95;;
52708;SDS011;38606;52.986;6.980;2023-09-30T04:28:28;18.42;;;6.20;;
52708;SDS011;38606;52.986;6.980;2023-09-30T04:30:54;16.85;;;5.68;;
52708;SDS011;38606;52.986;6.980;2023-09-30T04:33:19;20.08;;;5.90;;
52708;SDS011;38606;52.986;6.980;2023-09-30T04:35:46;18.70;;;6.35;;
52708;SDS011;38606;52.986;6.980;2023-09-30T04:38:12;20.95;;;5.82;;
52708;SDS011;38606;52.986;6.980;2023-09-30T04:40:38;23.83;;;6.22;;
52708;SDS011;38606;52.986;6.980;2023-09-30T04:43:04;16.98;;;5.38;;
52708;SDS011;38606;52.986;6.980;2023-09-30T04:45:30;20.20;;;5.47;;
52708;SDS011;38606;52.986;6.980;2023-09-30T04:47:56;18.55;;;6.38;;
52708;SDS011;38606;52.986;6.980;2023-09-30T04:50:22;18.45;;;6.57;;
52708;SDS011;38606;52.986;6.980;2023-09-30T04:52:48;15.63;;;5.90;;
52708;SDS011;38606;52.986;6.980;2023-09-30T04:55:14;17.77;;;6.13;;
52708;SDS011;38606;52.986;6.980;2023-09-30T04:57:44;25.17;;;6.93;;
52708;SDS011;38606;52.986;6.980;2023-09-30T05:00:12;19.65;;;6.18;;
52708;SDS011;38606;52.986;6.980;2023-09-30T05:02:47;17.63;;;5.60;;
52708;SDS011;38606;52.986;6.980;2023-09-30T05:05:13;20.17;;;6.20;;
52708;SDS011;38606;52.986;6.980;2023-09-30T05:07:39;29.70;;;6.43;;
52708;SDS011;38606;52.986;6.980;2023-09-30T05:10:06;21.40;;;6.75;;
52708;SDS011;38606;52.986;6.980;2023-09-30T05:12:38;17.58;;;5.65;;
52708;SDS011;38606;52.986;6.980;2023-09-30T05:15:04;16.50;;;5.90;;
52708;SDS011;38606;52.986;6.980;2023-09-30T05:17:33;17.42;;;6.50;;
52708;SDS011;38606;52.986;6.980;2023-09-30T05:19:58;17.25;;;5.90;;
52708;SDS011;38606;52.986;6.980;2023-09-30T05:22:24;23.85;;;7.07;;
52708;SDS011;38606;52.986;6.980;2023-09-30T05:24:50;19.08;;;6.43;;
52708;SDS011;38606;52.986;6.980;2023-09-30T05:27:17;18.20;;;6.20;;
52708;SDS011;38606;52.986;6.980;2023-09-30T05:29:43;23.25;;;6.28;;
52708;SDS011;38606;52.986;6.980;2023-09-30T05:32:09;18.40;;;5.85;;
52708;SDS011;38606;52.986;6.980;2023-09-30T05:34:35;16.70;;;6.22;;
52708;SDS011;38606;52.986;6.980;2023-09-30T05:37:00;20.55;;;7.05;;
52708;SDS011;38606;52.986;6.980;2023-09-30T05:39:26;19.08;;;6.47;;
52708;SDS011;38606;52.986;6.980;2023-09-30T05:41:53;18.88;;;6.20;;
52708;SDS011;38606;52.986;6.980;2023-09-30T05:44:20;23.17;;;6.38;;
52708;SDS011;38606;52.986;6.980;2023-09-30T05:46:47;20.42;;;6.28;;
52708;SDS011;38606;52.986;6.980;2023-09-30T05:49:12;17.50;;;6.35;;
52708;SDS011;38606;52.986;6.980;2023-09-30T05:51:39;20.70;;;5.95;;
52708;SDS011;38606;52.986;6.980;2023-09-30T05:54:06;18.38;;;6.70;;
52708;SDS011;38606;52.986;6.980;2023-09-30T05:56:35;19.80;;;6.43;;
52708;SDS011;38606;52.986;6.980;2023-09-30T05:59:02;16.73;;;6.63;;
52708;SDS011;38606;52.986;6.980;2023-09-30T06:01:28;23.30;;;6.43;;
52708;SDS011;38606;52.986;6.980;2023-09-30T06:03:53;19.10;;;6.50;;
52708;SDS011;38606;52.986;6.980;2023-09-30T06:06:20;20.73;;;6.47;;
52708;SDS011;38606;52.986;6.980;2023-09-30T06:08:45;20.73;;;7.85;;
52708;SDS011;38606;52.986;6.980;2023-09-30T06:11:21;19.30;;;7.18;;
52708;SDS011;38606;52.986;6.980;2023-09-30T06:13:56;15.52;;;6.30;;
52708;SDS011;38606;52.986;6.980;2023-09-30T06:16:26;19.52;;;6.97;;
52708;SDS011;38606;52.986;6.980;2023-09-30T06:18:52;15.10;;;6.93;;
52708;SDS011;38606;52.986;6.980;2023-09-30T06:21:19;17.13;;;6.65;;
52708;SDS011;38606;52.986;6.980;2023-09-30T06:23:46;19.35;;;7.20;;
52708;SDS011;38606;52.986;6.980;2023-09-30T06:26:13;19.35;;;7.07;;
52708;SDS011;38606;52.986;6.980;2023-09-30T06:28:41;24.00;;;6.97;;
52708;SDS011;38606;52.986;6.980;2023-09-30T06:31:08;14.73;;;7.15;;
52708;SDS011;38606;52.986;6.980;2023-09-30T06:33:37;22.30;;;7.93;;
52708;SDS011;38606;52.986;6.980;2023-09-30T06:36:10;16.23;;;6.57;;
52708;SDS011;38606;52.986;6.980;2023-09-30T06:38:36;23.13;;;6.85;;
52708;SDS011;38606;52.986;6.980;2023-09-30T06:41:06;17.80;;;7.15;;
52708;SDS011;38606;52.986;6.980;2023-09-30T06:43:33;17.88;;;7.43;;
52708;SDS011;38606;52.986;6.980;2023-09-30T06:46:05;19.90;;;7.57;;
52708;SDS011;38606;52.986;6.980;2023-09-30T06:48:38;19.95;;;7.35;;
52708;SDS011;38606;52.986;6.980;2023-09-30T06:51:07;15.32;;;7.05;;
52708;SDS011;38606;52.986;6.980;2023-09-30T06:53:33;17.80;;;7.25;;
52708;SDS011;38606;52.986;6.980;2023-09-30T06:55:58;18.75;;;7.53;;
52708;SDS011;38606;52.986;6.980;2023-09-30T06:58:24;17.05;;;7.30;;
52708;SDS011;38606;52.986;6.980;2023-09-30T07:00:50;16.70;;;7.68;;
52708;SDS011;38606;52.986;6.980;2023-09-30T07:03:19;15.60;;;6.93;;
52708;SDS011;38606;52.986;6.980;2023-09-30T07:05:45;15.48;;;7.72;;
52708;SDS011;38606;52.986;6.980;2023-09-30T07:08:14;15.65;;;6.90;;
52708;SDS011;38606;52.986;6.980;2023-09-30T07:10:41;20.10;;;7.72;;
52708;SDS011;38606;52.986;6.980;2023-09-30T07:13:07;20.08;;;8.13;;
52708;SDS011;38606;52.986;6.980;2023-09-30T07:15:33;18.60;;;8.10;;
52708;SDS011;38606;52.986;6.980;2023-09-30T07:17:59;14.60;;;7.60;;
52708;SDS011;38606;52.986;6.980;2023-09-30T07:20:24;18.48;;;7.55;;
52708;SDS011;38606;52.986;6.980;2023-09-30T07:22:51;19.52;;;7.70;;
52708;SDS011;38606;52.986;6.980;2023-09-30T07:25:17;21.45;;;8.50;;
52708;SDS011;38606;52.986;6.980;2023-09-30T07:27:43;15.77;;;7.18;;
52708;SDS011;38606;52.986;6.980;2023-09-30T07:30:13;18.05;;;7.55;;
52708;SDS011;38606;52.986;6.980;2023-09-30T07:32:41;18.95;;;7.60;;
52708;SDS011;38606;52.986;6.980;2023-09-30T07:35:07;19.73;;;8.05;;
52708;SDS011;38606;52.986;6.980;2023-09-30T07:37:33;16.40;;;7.10;;
52708;SDS011;38606;52.986;6.980;2023-09-30T07:39:59;15.13;;;7.70;;
52708;SDS011;38606;52.986;6.980;2023-09-30T07:42:25;16.95;;;7.25;;
52708;SDS011;38606;52.986;6.980;2023-09-30T07:44:51;16.38;;;8.02;;
52708;SDS011;38606;52.986;6.980;2023-09-30T07:47:16;16.27;;;7.38;;
52708;SDS011;38606;52.986;6.980;2023-09-30T07:49:42;17.30;;;7.13;;
52708;SDS011;38606;52.986;6.980;2023-09-30T07:52:08;13.13;;;7.07;;
52708;SDS011;38606;52.986;6.980;2023-09-30T07:54:34;16.35;;;7.72;;
52708;SDS011;38606;52.986;6.980;2023-09-30T07:56:59;15.90;;;6.78;;
52708;SDS011;38606;52.986;6.980;2023-09-30T07:59:26;19.10;;;7.43;;
52708;SDS011;38606;52.986;6.980;2023-09-30T08:01:52;18.75;;;6.70;;
52708;SDS011;38606;52.986;6.980;2023-09-30T08:04:18;17.67;;;7.35;;
52708;SDS011;38606;52.986;6.980;2023-09-30T08:06:44;13.90;;;7.03;;
52708;SDS011;38606;52.986;6.980;2023-09-30T08:09:12;17.05;;;7.00;;
52708;SDS011;38606;52.986;6.980;2023-09-30T08:11:39;14.32;;;6.50;;
52708;SDS011;38606;52.986;6.980;2023-09-30T08:14:04;16.38;;;6.45;;
52708;SDS011;38606;52.986;6.980;2023-09-30T08:16:34;17.95;;;7.35;;
52708;SDS011;38606;52.986;6.980;2023-09-30T08:19:01;14.20;;;5.90;;
52708;SDS011;38606;52.986;6.980;2023-09-30T08:21:28;15.10;;;6.53;;
52708;SDS011;38606;52.986;6.980;2023-09-30T08:23:55;15.30;;;7.05;;
52708;SDS011;38606;52.986;6.980;2023-09-30T08:26:21;15.40;;;6.43;;
52708;SDS011;38606;52.986;6.980;2023-09-30T08:28:46;13.57;;;6.13;;
52708;SDS011;38606;52.986;6.980;2023-09-30T08:31:12;12.05;;;6.00;;
52708;SDS011;38606;52.986;6.980;2023-09-30T08:33:39;13.50;;;6.00;;
52708;SDS011;38606;52.986;6.980;2023-09-30T08:36:10;16.50;;;6.15;;
52708;SDS011;38606;52.986;6.980;2023-09-30T08:38:39;16.15;;;6.32;;
52708;SDS011;38606;52.986;6.980;2023-09-30T08:41:06;11.85;;;5.55;;
52708;SDS011;38606;52.986;6.980;2023-09-30T08:43:39;12.63;;;5.57;;
52708;SDS011;38606;52.986;6.980;2023-09-30T08:46:05;17.05;;;5.97;;
52708;SDS011;38606;52.986;6.980;2023-09-30T08:48:32;13.48;;;5.85;;
52708;SDS011;38606;52.986;6.980;2023-09-30T08:50:59;13.27;;;6.13;;
52708;SDS011;38606;52.986;6.980;2023-09-30T08:53:25;17.40;;;5.63;;
52708;SDS011;38606;52.986;6.980;2023-09-30T08:55:54;18.45;;;5.40;;
52708;SDS011;38606;52.986;6.980;2023-09-30T08:58:26;14.13;;;5.32;;
52708;SDS011;38606;52.986;6.980;2023-09-30T09:00:52;14.68;;;5.18;;
52708;SDS011;38606;52.986;6.980;2023-09-30T09:03:19;12.27;;;5.32;;
52708;SDS011;38606;52.986;6.980;2023-09-30T09:05:45;11.05;;;4.35;;
52708;SDS011;38606;52.986;6.980;2023-09-30T09:08:21;11.50;;;4.55;;
52708;SDS011;38606;52.986;6.980;2023-09-30T09:10:55;17.70;;;5.10;;
52708;SDS011;38606;52.986;6.980;2023-09-30T09:13:22;18.02;;;5.45;;
52708;SDS011;38606;52.986;6.980;2023-09-30T09:15:48;9.50;;;4.55;;
52708;SDS011;38606;52.986;6.980;2023-09-30T09:18:33;10.65;;;4.32;;
52708;SDS011;38606;52.986;6.980;2023-09-30T09:23:58;13.35;;;5.00;;
52708;SDS011;38606;52.986;6.980;2023-09-30T09:26:28;13.45;;;4.35;;
52708;SDS011;38606;52.986;6.980;2023-09-30T09:29:05;11.07;;;4.30;;
52708;SDS011;38606;52.986;6.980;2023-09-30T09:31:32;13.80;;;4.30;;
52708;SDS011;38606;52.986;6.980;2023-09-30T09:34:12;13.95;;;4.30;;
52708;SDS011;38606;52.986;6.980;2023-09-30T09:36:40;11.43;;;4.05;;
52708;SDS011;38606;52.986;6.980;2023-09-30T09:39:10;12.05;;;3.90;;
52708;SDS011;38606;52.986;6.980;2023-09-30T09:41:50;9.57;;;3.50;;
52708;SDS011;38606;52.986;6.980;2023-09-30T09:44:16;11.85;;;3.13;;
52708;SDS011;38606;52.986;6.980;2023-09-30T09:46:44;9.82;;;3.28;;
52708;SDS011;38606;52.986;6.980;2023-09-30T09:49:12;11.32;;;2.95;;
52708;SDS011;38606;52.986;6.980;2023-09-30T09:51:39;13.90;;;3.78;;
52708;SDS011;38606;52.986;6.980;2023-09-30T09:54:07;8.65;;;3.05;;
52708;SDS011;38606;52.986;6.980;2023-09-30T09:56:33;11.40;;;3.70;;
52708;SDS011;38606;52.986;6.980;2023-09-30T09:59:01;10.27;;;3.47;;
52708;SDS011;38606;52.986;6.980;2023-09-30T10:01:30;9.15;;;3.30;;
52708;SDS011;38606;52.986;6.980;2023-09-30T10:03:58;9.45;;;3.20;;
52708;SDS011;38606;52.986;6.980;2023-09-30T10:06:24;9.82;;;3.10;;
52708;SDS011;38606;52.986;6.980;2023-09-30T10:08:50;8.60;;;3.13;;
52708;SDS011;38606;52.986;6.980;2023-09-30T10:11:17;11.93;;;2.90;;
52708;SDS011;38606;52.986;6.980;2023-09-30T10:16:46;9.60;;;2.63;;
52708;SDS011;38606;52.986;6.980;2023-09-30T10:19:21;11.32;;;3.28;;
52708;SDS011;38606;52.986;6.980;2023-09-30T10:22:19;9.55;;;2.95;;
52708;SDS011;38606;52.986;6.980;2023-09-30T10:24:50;10.40;;;3.00;;
52708;SDS011;38606;52.986;6.980;2023-09-30T10:40:51;10.63;;;2.58;;
52708;SDS011;38606;52.986;6.980;2023-09-30T10:56:17;7.63;;;2.30;;
52708;SDS011;38606;52.986;6.980;2023-09-30T10:58:48;8.93;;;2.65;;
52708;SDS011;38606;52.986;6.980;2023-09-30T11:01:15;9.18;;;2.70;;
52708;SDS011;38606;52.986;6.980;2023-09-30T11:03:49;10.65;;;2.67;;
52708;SDS011;38606;52.986;6.980;2023-09-30T11:06:17;11.27;;;2.55;;
52708;SDS011;38606;52.986;6.980;2023-09-30T11:08:46;7.32;;;2.25;;
52708;SDS011;38606;52.986;6.980;2023-09-30T11:11:31;6.50;;;2.13;;
52708;SDS011;38606;52.986;6.980;2023-09-30T11:16:52;10.00;;;3.05;;
52708;SDS011;38606;52.986;6.980;2023-09-30T11:19:19;9.10;;;2.40;;
52708;SDS011;38606;52.986;6.980;2023-09-30T11:21:46;8.77;;;2.65;;
52708;SDS011;38606;52.986;6.980;2023-09-30T11:24:20;9.93;;;2.55;;
52708;SDS011;38606;52.986;6.980;2023-09-30T11:26:46;9.57;;;2.10;;
52708;SDS011;38606;52.986;6.980;2023-09-30T11:29:13;8.30;;;1.75;;
52708;SDS011;38606;52.986;6.980;2023-09-30T11:31:44;8.75;;;2.20;;
52708;SDS011;38606;52.986;6.980;2023-09-30T11:34:12;8.07;;;2.08;;
52708;SDS011;38606;52.986;6.980;2023-09-30T11:36:38;7.35;;;2.03;;
52708;SDS011;38606;52.986;6.980;2023-09-30T11:39:09;4.90;;;1.52;;
52708;SDS011;38606;52.986;6.980;2023-09-30T11:41:39;9.00;;;2.15;;
52708;SDS011;38606;52.986;6.980;2023-09-30T11:46:46;9.05;;;1.95;;
52708;SDS011;38606;52.986;6.980;2023-09-30T11:51:58;10.75;;;2.40;;
52708;SDS011;38606;52.986;6.980;2023-09-30T11:54:31;7.53;;;2.20;;
52708;SDS011;38606;52.986;6.980;2023-09-30T11:56:59;12.30;;;2.55;;
52708;SDS011;38606;52.986;6.980;2023-09-30T11:59:26;8.77;;;2.17;;
52708;SDS011;38606;52.986;6.980;2023-09-30T12:01:52;8.32;;;1.77;;
52708;SDS011;38606;52.986;6.980;2023-09-30T12:04:18;9.32;;;1.77;;
52708;SDS011;38606;52.986;6.980;2023-09-30T12:06:47;9.40;;;2.00;;
52708;SDS011;38606;52.986;6.980;2023-09-30T12:09:14;6.85;;;1.80;;
52708;SDS011;38606;52.986;6.980;2023-09-30T12:11:41;8.23;;;1.80;;
52708;SDS011;38606;52.986;6.980;2023-09-30T12:14:11;10.23;;;1.85;;
52708;SDS011;38606;52.986;6.980;2023-09-30T12:16:37;9.23;;;2.10;;
52708;SDS011;38606;52.986;6.980;2023-09-30T12:19:03;7.55;;;2.25;;
52708;SDS011;38606;52.986;6.980;2023-09-30T12:21:30;7.88;;;2.08;;
52708;SDS011;38606;52.986;6.980;2023-09-30T12:23:57;6.15;;;1.98;;
52708;SDS011;38606;52.986;6.980;2023-09-30T12:26:23;9.40;;;2.03;;
52708;SDS011;38606;52.986;6.980;2023-09-30T12:28:49;6.45;;;2.00;;
52708;SDS011;38606;52.986;6.980;2023-09-30T12:31:15;9.43;;;2.08;;
52708;SDS011;38606;52.986;6.980;2023-09-30T12:33:40;7.15;;;1.92;;
52708;SDS011;38606;52.986;6.980;2023-09-30T12:36:06;7.07;;;2.05;;
52708;SDS011;38606;52.986;6.980;2023-09-30T12:38:32;13.73;;;2.17;;
52708;SDS011;38606;52.986;6.980;2023-09-30T12:40:58;7.80;;;2.00;;
52708;SDS011;38606;52.986;6.980;2023-09-30T12:43:25;5.13;;;1.77;;
52708;SDS011;38606;52.986;6.980;2023-09-30T12:45:51;9.80;;;2.00;;
52708;SDS011;38606;52.986;6.980;2023-09-30T12:48:17;8.52;;;1.90;;
52708;SDS011;38606;52.986;6.980;2023-09-30T12:50:43;7.38;;;1.67;;
52708;SDS011;38606;52.986;6.980;2023-09-30T12:53:09;6.25;;;2.03;;
52708;SDS011;38606;52.986;6.980;2023-09-30T12:55:35;9.60;;;1.70;;
52708;SDS011;38606;52.986;6.980;2023-09-30T12:58:01;6.28;;;1.65;;
52708;SDS011;38606;52.986;6.980;2023-09-30T13:00:27;6.60;;;1.80;;
52708;SDS011;38606;52.986;6.980;2023-09-30T13:02:56;8.23;;;1.67;;
52708;SDS011;38606;52.986;6.980;2023-09-30T13:05:22;5.82;;;1.98;;
52708;SDS011;38606;52.986;6.980;2023-09-30T13:07:48;9.05;;;2.17;;
52708;SDS011;38606;52.986;6.980;2023-09-30T13:10:14;4.90;;;1.92;;
52708;SDS011;38606;52.986;6.980;2023-09-30T13:12:39;6.50;;;1.83;;
52708;SDS011;38606;52.986;6.980;2023-09-30T13:15:05;7.43;;;1.80;;
52708;SDS011;38606;52.986;6.980;2023-09-30T13:17:33;7.22;;;1.83;;
52708;SDS011;38606;52.986;6.980;2023-09-30T13:19:59;9.52;;;2.13;;
52708;SDS011;38606;52.986;6.980;2023-09-30T13:22:30;9.10;;;2.30;;
52708;SDS011;38606;52.986;6.980;2023-09-30T13:24:56;7.47;;;1.85;;
52708;SDS011;38606;52.986;6.980;2023-09-30T13:27:21;7.35;;;2.03;;
52708;SDS011;38606;52.986;6.980;2023-09-30T13:29:47;7.30;;;2.10;;
52708;SDS011;38606;52.986;6.980;2023-09-30T13:32:13;6.35;;;1.90;;
52708;SDS011;38606;52.986;6.980;2023-09-30T13:34:39;9.38;;;2.00;;
52708;SDS011;38606;52.986;6.980;2023-09-30T13:37:05;5.72;;;2.80;;
52708;SDS011;38606;52.986;6.980;2023-09-30T13:39:30;6.72;;;2.33;;
52708;SDS011;38606;52.986;6.980;2023-09-30T13:41:56;5.57;;;2.00;;
52708;SDS011;38606;52.986;6.980;2023-09-30T13:44:22;6.38;;;1.80;;
52708;SDS011;38606;52.986;6.980;2023-09-30T13:46:48;11.60;;;4.82;;
52708;SDS011;38606;52.986;6.980;2023-09-30T13:49:13;5.90;;;2.20;;
52708;SDS011;38606;52.986;6.980;2023-09-30T13:51:39;6.47;;;2.47;;
52708;SDS011;38606;52.986;6.980;2023-09-30T13:54:05;6.30;;;2.05;;
52708;SDS011;38606;52.986;6.980;2023-09-30T13:56:32;6.85;;;2.40;;
52708;SDS011;38606;52.986;6.980;2023-09-30T13:58:58;6.10;;;2.00;;
52708;SDS011;38606;52.986;6.980;2023-09-30T14:01:25;7.22;;;2.50;;
52708;SDS011;38606;52.986;6.980;2023-09-30T14:03:51;7.53;;;2.00;;
52708;SDS011;38606;52.986;6.980;2023-09-30T14:06:20;8.57;;;2.17;;
52708;SDS011;38606;52.986;6.980;2023-09-30T14:08:46;7.03;;;1.52;;
52708;SDS011;38606;52.986;6.980;2023-09-30T14:11:12;5.10;;;1.63;;
52708;SDS011;38606;52.986;6.980;2023-09-30T14:13:38;7.30;;;1.83;;
52708;SDS011;38606;52.986;6.980;2023-09-30T14:16:07;7.45;;;1.55;;
52708;SDS011;38606;52.986;6.980;2023-09-30T14:18:33;6.70;;;1.80;;
52708;SDS011;38606;52.986;6.980;2023-09-30T14:21:01;6.20;;;1.77;;
52708;SDS011;38606;52.986;6.980;2023-09-30T14:23:27;6.50;;;1.70;;
52708;SDS011;38606;52.986;6.980;2023-09-30T14:25:54;6.70;;;1.90;;
52708;SDS011;38606;52.986;6.980;2023-09-30T14:28:24;6.20;;;2.00;;
52708;SDS011;38606;52.986;6.980;2023-09-30T14:30:50;9.52;;;2.83;;
52708;SDS011;38606;52.986;6.980;2023-09-30T14:33:16;8.27;;;2.13;;
52708;SDS011;38606;52.986;6.980;2023-09-30T14:35:44;8.27;;;2.00;;
52708;SDS011;38606;52.986;6.980;2023-09-30T14:38:11;7.07;;;2.47;;
52708;SDS011;38606;52.986;6.980;2023-09-30T14:40:37;6.70;;;1.92;;
52708;SDS011;38606;52.986;6.980;2023-09-30T14:43:04;9.00;;;1.98;;
52708;SDS011;38606;52.986;6.980;2023-09-30T14:45:31;6.30;;;1.70;;
52708;SDS011;38606;52.986;6.980;2023-09-30T14:47:57;6.22;;;2.20;;
52708;SDS011;38606;52.986;6.980;2023-09-30T14:50:23;6.80;;;2.00;;
52708;SDS011;38606;52.986;6.980;2023-09-30T14:52:48;7.63;;;2.50;;
52708;SDS011;38606;52.986;6.980;2023-09-30T14:55:14;4.70;;;2.05;;
52708;SDS011;38606;52.986;6.980;2023-09-30T14:57:41;7.38;;;1.80;;
52708;SDS011;38606;52.986;6.980;2023-09-30T15:00:07;8.30;;;2.22;;
52708;SDS011;38606;52.986;6.980;2023-09-30T15:02:36;10.13;;;2.03;;
52708;SDS011;38606;52.986;6.980;2023-09-30T15:05:04;6.30;;;1.70;;
52708;SDS011;38606;52.986;6.980;2023-09-30T15:07:30;7.53;;;2.08;;
52708;SDS011;38606;52.986;6.980;2023-09-30T15:09:55;8.75;;;1.85;;
52708;SDS011;38606;52.986;6.980;2023-09-30T15:12:21;5.90;;;1.80;;
52708;SDS011;38606;52.986;6.980;2023-09-30T15:14:47;8.45;;;2.13;;
52708;SDS011;38606;52.986;6.980;2023-09-30T15:17:12;6.72;;;1.88;;
52708;SDS011;38606;52.986;6.980;2023-09-30T15:19:38;11.98;;;2.70;;